sensor_id;sensor_type;location;lat;lon;timestamp;P1;durP1;ratioP1;P2;durP2;ratioP2
18166;SDS011;9208;42.688;23.404;2023-04-24T00:01:39;4.57;;;4.10;;
18166;SDS011;9208;42.688;23.404;2023-04-24T00:04:05;6.57;;;4.10;;
18166;SDS011;9208;42.688;23.404;2023-04-24T00:06:32;5.53;;;4.17;;
18166;SDS011;9208;42.688;23.404;2023-04-24T00:09:01;4.37;;;3.80;;
18166;SDS011;9208;42.688;23.404;2023-04-24T00:11:27;6.57;;;4.50;;
18166;SDS011;9208;42.688;23.404;2023-04-24T00:13:53;5.40;;;4.33;;
18166;SDS011;9208;42.688;23.404;2023-04-24T00:16:19;4.57;;;4.17;;
18166;SDS011;9208;42.688;23.404;2023-04-24T00:18:45;4.33;;;3.93;;
18166;SDS011;9208;42.688;23.404;2023-04-24T00:21:13;5.30;;;4.80;;
18166;SDS011;9208;42.688;23.404;2023-04-24T00:23:39;5.37;;;4.30;;
18166;SDS011;9208;42.688;23.404;2023-04-24T00:26:05;4.97;;;3.80;;
18166;SDS011;9208;42.688;23.404;2023-04-24T00:28:30;4.70;;;3.90;;
18166;SDS011;9208;42.688;23.404;2023-04-24T00:30:56;8.13;;;5.00;;
18166;SDS011;9208;42.688;23.404;2023-04-24T00:33:21;6.53;;;4.67;;
18166;SDS011;9208;42.688;23.404;2023-04-24T00:35:46;4.70;;;4.23;;
18166;SDS011;9208;42.688;23.404;2023-04-24T00:38:12;6.07;;;4.27;;
18166;SDS011;9208;42.688;23.404;2023-04-24T00:40:37;4.67;;;4.20;;
18166;SDS011;9208;42.688;23.404;2023-04-24T00:43:03;6.47;;;4.37;;
18166;SDS011;9208;42.688;23.404;2023-04-24T00:45:28;4.70;;;4.30;;
18166;SDS011;9208;42.688;23.404;2023-04-24T00:47:56;4.37;;;4.07;;
18166;SDS011;9208;42.688;23.404;2023-04-24T00:50:23;6.33;;;4.23;;
18166;SDS011;9208;42.688;23.404;2023-04-24T00:52:49;4.70;;;4.17;;
18166;SDS011;9208;42.688;23.404;2023-04-24T00:55:14;8.40;;;4.77;;
18166;SDS011;9208;42.688;23.404;2023-04-24T00:57:40;5.23;;;3.83;;
18166;SDS011;9208;42.688;23.404;2023-04-24T01:00:06;5.23;;;3.80;;
18166;SDS011;9208;42.688;23.404;2023-04-24T01:02:35;4.57;;;4.10;;
18166;SDS011;9208;42.688;23.404;2023-04-24T01:05:05;5.07;;;4.57;;
18166;SDS011;9208;42.688;23.404;2023-04-24T01:07:33;4.63;;;4.23;;
18166;SDS011;9208;42.688;23.404;2023-04-24T01:09:59;4.40;;;4.00;;
18166;SDS011;9208;42.688;23.404;2023-04-24T01:12:25;4.57;;;3.87;;
18166;SDS011;9208;42.688;23.404;2023-04-24T01:14:50;5.97;;;4.13;;
18166;SDS011;9208;42.688;23.404;2023-04-24T01:17:16;5.50;;;4.27;;
18166;SDS011;9208;42.688;23.404;2023-04-24T01:19:41;4.37;;;3.97;;
18166;SDS011;9208;42.688;23.404;2023-04-24T01:22:13;5.27;;;4.20;;
18166;SDS011;9208;42.688;23.404;2023-04-24T01:24:39;6.17;;;4.40;;
18166;SDS011;9208;42.688;23.404;2023-04-24T01:27:06;4.17;;;3.87;;
18166;SDS011;9208;42.688;23.404;2023-04-24T01:29:32;6.20;;;4.10;;
18166;SDS011;9208;42.688;23.404;2023-04-24T01:31:57;5.47;;;4.30;;
18166;SDS011;9208;42.688;23.404;2023-04-24T01:34:23;5.00;;;4.47;;
18166;SDS011;9208;42.688;23.404;2023-04-24T01:36:49;5.77;;;4.30;;
18166;SDS011;9208;42.688;23.404;2023-04-24T01:39:15;4.40;;;4.00;;
18166;SDS011;9208;42.688;23.404;2023-04-24T01:41:41;7.10;;;4.30;;
18166;SDS011;9208;42.688;23.404;2023-04-24T01:44:07;6.77;;;4.13;;
18166;SDS011;9208;42.688;23.404;2023-04-24T01:46:32;5.43;;;4.30;;
18166;SDS011;9208;42.688;23.404;2023-04-24T01:48:59;5.77;;;4.10;;
18166;SDS011;9208;42.688;23.404;2023-04-24T01:51:25;4.37;;;3.80;;
18166;SDS011;9208;42.688;23.404;2023-04-24T01:53:51;4.60;;;4.20;;
18166;SDS011;9208;42.688;23.404;2023-04-24T01:56:18;6.10;;;4.00;;
18166;SDS011;9208;42.688;23.404;2023-04-24T01:58:48;4.73;;;4.33;;
18166;SDS011;9208;42.688;23.404;2023-04-24T02:01:18;4.80;;;4.33;;
18166;SDS011;9208;42.688;23.404;2023-04-24T02:03:45;5.03;;;4.53;;
18166;SDS011;9208;42.688;23.404;2023-04-24T02:06:10;4.90;;;4.17;;
18166;SDS011;9208;42.688;23.404;2023-04-24T02:08:36;4.53;;;4.13;;
18166;SDS011;9208;42.688;23.404;2023-04-24T02:11:01;5.50;;;4.53;;
18166;SDS011;9208;42.688;23.404;2023-04-24T02:13:27;6.47;;;4.77;;
18166;SDS011;9208;42.688;23.404;2023-04-24T02:15:53;4.73;;;4.33;;
18166;SDS011;9208;42.688;23.404;2023-04-24T02:18:18;6.90;;;4.90;;
18166;SDS011;9208;42.688;23.404;2023-04-24T02:20:44;6.13;;;4.53;;
18166;SDS011;9208;42.688;23.404;2023-04-24T02:23:10;4.60;;;4.20;;
18166;SDS011;9208;42.688;23.404;2023-04-24T02:25:35;5.33;;;4.83;;
18166;SDS011;9208;42.688;23.404;2023-04-24T02:28:01;4.50;;;3.87;;
18166;SDS011;9208;42.688;23.404;2023-04-24T02:30:27;6.63;;;4.40;;
18166;SDS011;9208;42.688;23.404;2023-04-24T02:32:52;5.30;;;4.40;;
18166;SDS011;9208;42.688;23.404;2023-04-24T02:35:18;5.27;;;4.77;;
18166;SDS011;9208;42.688;23.404;2023-04-24T02:37:44;7.17;;;4.63;;
18166;SDS011;9208;42.688;23.404;2023-04-24T02:40:09;5.17;;;4.67;;
18166;SDS011;9208;42.688;23.404;2023-04-24T02:42:35;6.23;;;5.07;;
18166;SDS011;9208;42.688;23.404;2023-04-24T02:45:03;7.57;;;5.10;;
18166;SDS011;9208;42.688;23.404;2023-04-24T02:47:30;5.40;;;4.90;;
18166;SDS011;9208;42.688;23.404;2023-04-24T02:49:55;6.03;;;5.13;;
18166;SDS011;9208;42.688;23.404;2023-04-24T02:52:21;9.47;;;5.40;;
18166;SDS011;9208;42.688;23.404;2023-04-24T02:54:46;6.80;;;5.50;;
18166;SDS011;9208;42.688;23.404;2023-04-24T02:57:12;9.00;;;5.27;;
18166;SDS011;9208;42.688;23.404;2023-04-24T02:59:37;5.50;;;4.67;;
18166;SDS011;9208;42.688;23.404;2023-04-24T03:02:02;6.47;;;4.83;;
18166;SDS011;9208;42.688;23.404;2023-04-24T03:04:28;5.87;;;5.10;;
18166;SDS011;9208;42.688;23.404;2023-04-24T03:06:53;5.50;;;4.87;;
18166;SDS011;9208;42.688;23.404;2023-04-24T03:09:20;5.17;;;4.67;;
18166;SDS011;9208;42.688;23.404;2023-04-24T03:11:46;5.73;;;4.60;;
18166;SDS011;9208;42.688;23.404;2023-04-24T03:14:11;5.77;;;4.80;;
18166;SDS011;9208;42.688;23.404;2023-04-24T03:16:37;6.13;;;4.77;;
18166;SDS011;9208;42.688;23.404;2023-04-24T03:19:03;5.40;;;4.90;;
18166;SDS011;9208;42.688;23.404;2023-04-24T03:21:28;5.30;;;4.47;;
18166;SDS011;9208;42.688;23.404;2023-04-24T03:23:54;7.80;;;5.03;;
18166;SDS011;9208;42.688;23.404;2023-04-24T03:26:19;6.27;;;4.97;;
18166;SDS011;9208;42.688;23.404;2023-04-24T03:28:45;6.03;;;4.50;;
18166;SDS011;9208;42.688;23.404;2023-04-24T03:31:14;4.73;;;4.23;;
18166;SDS011;9208;42.688;23.404;2023-04-24T03:33:40;5.27;;;4.77;;
18166;SDS011;9208;42.688;23.404;2023-04-24T03:36:06;5.30;;;4.80;;
18166;SDS011;9208;42.688;23.404;2023-04-24T03:38:31;6.13;;;4.77;;
18166;SDS011;9208;42.688;23.404;2023-04-24T03:40:57;5.70;;;4.90;;
18166;SDS011;9208;42.688;23.404;2023-04-24T03:43:22;5.37;;;4.77;;
18166;SDS011;9208;42.688;23.404;2023-04-24T03:45:47;5.80;;;4.77;;
18166;SDS011;9208;42.688;23.404;2023-04-24T03:48:13;6.50;;;5.03;;
18166;SDS011;9208;42.688;23.404;2023-04-24T03:50:38;6.10;;;5.13;;
18166;SDS011;9208;42.688;23.404;2023-04-24T03:53:04;4.97;;;4.40;;
18166;SDS011;9208;42.688;23.404;2023-04-24T03:55:30;5.97;;;4.70;;
18166;SDS011;9208;42.688;23.404;2023-04-24T03:57:55;7.93;;;4.70;;
18166;SDS011;9208;42.688;23.404;2023-04-24T04:00:21;5.43;;;4.47;;
18166;SDS011;9208;42.688;23.404;2023-04-24T04:02:46;5.70;;;4.10;;
18166;SDS011;9208;42.688;23.404;2023-04-24T04:05:12;6.60;;;4.00;;
18166;SDS011;9208;42.688;23.404;2023-04-24T04:07:37;5.93;;;4.03;;
18166;SDS011;9208;42.688;23.404;2023-04-24T04:10:02;5.33;;;4.20;;
18166;SDS011;9208;42.688;23.404;2023-04-24T04:12:28;3.90;;;3.60;;
18166;SDS011;9208;42.688;23.404;2023-04-24T04:14:54;4.90;;;3.87;;
18166;SDS011;9208;42.688;23.404;2023-04-24T04:17:19;5.30;;;4.83;;
18166;SDS011;9208;42.688;23.404;2023-04-24T04:19:44;4.30;;;3.90;;
18166;SDS011;9208;42.688;23.404;2023-04-24T04:22:10;5.10;;;3.93;;
18166;SDS011;9208;42.688;23.404;2023-04-24T04:24:35;8.07;;;4.30;;
18166;SDS011;9208;42.688;23.404;2023-04-24T04:27:03;7.43;;;4.40;;
18166;SDS011;9208;42.688;23.404;2023-04-24T04:29:30;4.20;;;3.80;;
18166;SDS011;9208;42.688;23.404;2023-04-24T04:32:00;4.30;;;3.70;;
18166;SDS011;9208;42.688;23.404;2023-04-24T04:34:26;6.47;;;3.83;;
18166;SDS011;9208;42.688;23.404;2023-04-24T04:36:51;6.20;;;3.83;;
18166;SDS011;9208;42.688;23.404;2023-04-24T04:39:17;5.17;;;4.67;;
18166;SDS011;9208;42.688;23.404;2023-04-24T04:41:43;7.07;;;3.90;;
18166;SDS011;9208;42.688;23.404;2023-04-24T04:44:11;4.50;;;4.10;;
18166;SDS011;9208;42.688;23.404;2023-04-24T04:46:37;5.77;;;4.50;;
18166;SDS011;9208;42.688;23.404;2023-04-24T04:49:03;6.27;;;4.57;;
18166;SDS011;9208;42.688;23.404;2023-04-24T04:51:29;4.53;;;4.07;;
18166;SDS011;9208;42.688;23.404;2023-04-24T04:53:55;4.77;;;4.37;;
18166;SDS011;9208;42.688;23.404;2023-04-24T04:56:20;8.53;;;5.10;;
18166;SDS011;9208;42.688;23.404;2023-04-24T04:58:46;9.03;;;6.67;;
18166;SDS011;9208;42.688;23.404;2023-04-24T05:01:12;9.33;;;6.97;;
18166;SDS011;9208;42.688;23.404;2023-04-24T05:03:37;11.77;;;6.60;;
18166;SDS011;9208;42.688;23.404;2023-04-24T05:06:05;8.20;;;6.50;;
18166;SDS011;9208;42.688;23.404;2023-04-24T05:08:31;9.57;;;6.10;;
18166;SDS011;9208;42.688;23.404;2023-04-24T05:10:56;6.30;;;5.70;;
18166;SDS011;9208;42.688;23.404;2023-04-24T05:13:22;9.00;;;6.20;;
18166;SDS011;9208;42.688;23.404;2023-04-24T05:15:47;8.70;;;5.77;;
18166;SDS011;9208;42.688;23.404;2023-04-24T05:18:12;6.00;;;5.30;;
18166;SDS011;9208;42.688;23.404;2023-04-24T05:20:38;7.53;;;5.20;;
18166;SDS011;9208;42.688;23.404;2023-04-24T05:23:04;6.07;;;5.40;;
18166;SDS011;9208;42.688;23.404;2023-04-24T05:25:32;7.37;;;5.90;;
18166;SDS011;9208;42.688;23.404;2023-04-24T05:28:00;6.90;;;5.47;;
18166;SDS011;9208;42.688;23.404;2023-04-24T05:30:26;7.03;;;6.00;;
18166;SDS011;9208;42.688;23.404;2023-04-24T05:32:51;8.27;;;5.83;;
18166;SDS011;9208;42.688;23.404;2023-04-24T05:35:17;7.73;;;5.23;;
18166;SDS011;9208;42.688;23.404;2023-04-24T05:37:43;7.50;;;5.40;;
18166;SDS011;9208;42.688;23.404;2023-04-24T05:40:09;5.63;;;5.03;;
18166;SDS011;9208;42.688;23.404;2023-04-24T05:42:35;8.43;;;5.23;;
18166;SDS011;9208;42.688;23.404;2023-04-24T05:45:00;8.13;;;5.47;;
18166;SDS011;9208;42.688;23.404;2023-04-24T05:47:26;9.53;;;5.27;;
18166;SDS011;9208;42.688;23.404;2023-04-24T05:49:52;9.07;;;5.20;;
18166;SDS011;9208;42.688;23.404;2023-04-24T05:52:18;6.33;;;5.33;;
18166;SDS011;9208;42.688;23.404;2023-04-24T05:54:43;16.17;;;6.23;;
18166;SDS011;9208;42.688;23.404;2023-04-24T05:57:09;38.30;;;9.03;;
18166;SDS011;9208;42.688;23.404;2023-04-24T05:59:36;10.07;;;6.20;;
18166;SDS011;9208;42.688;23.404;2023-04-24T06:02:03;6.47;;;5.67;;
18166;SDS011;9208;42.688;23.404;2023-04-24T06:04:29;7.03;;;6.13;;
18166;SDS011;9208;42.688;23.404;2023-04-24T06:06:54;7.17;;;6.27;;
18166;SDS011;9208;42.688;23.404;2023-04-24T06:09:24;9.67;;;6.40;;
18166;SDS011;9208;42.688;23.404;2023-04-24T06:11:50;7.70;;;6.83;;
18166;SDS011;9208;42.688;23.404;2023-04-24T06:14:18;7.43;;;6.57;;
18166;SDS011;9208;42.688;23.404;2023-04-24T06:16:44;8.20;;;7.07;;
18166;SDS011;9208;42.688;23.404;2023-04-24T06:19:10;9.53;;;6.87;;
18166;SDS011;9208;42.688;23.404;2023-04-24T06:21:35;8.83;;;7.43;;
18166;SDS011;9208;42.688;23.404;2023-04-24T06:24:00;8.50;;;7.00;;
18166;SDS011;9208;42.688;23.404;2023-04-24T06:26:26;9.17;;;6.97;;
18166;SDS011;9208;42.688;23.404;2023-04-24T06:28:52;7.83;;;7.03;;
18166;SDS011;9208;42.688;23.404;2023-04-24T06:31:21;8.20;;;6.90;;
18166;SDS011;9208;42.688;23.404;2023-04-24T06:33:47;10.73;;;7.93;;
18166;SDS011;9208;42.688;23.404;2023-04-24T06:36:14;17.53;;;8.07;;
18166;SDS011;9208;42.688;23.404;2023-04-24T06:38:40;12.83;;;6.87;;
18166;SDS011;9208;42.688;23.404;2023-04-24T06:41:06;10.03;;;7.30;;
18166;SDS011;9208;42.688;23.404;2023-04-24T06:43:31;11.67;;;8.07;;
18166;SDS011;9208;42.688;23.404;2023-04-24T06:45:57;10.90;;;7.13;;
18166;SDS011;9208;42.688;23.404;2023-04-24T06:48:23;11.77;;;7.30;;
18166;SDS011;9208;42.688;23.404;2023-04-24T06:50:50;10.87;;;7.27;;
18166;SDS011;9208;42.688;23.404;2023-04-24T06:53:16;12.63;;;7.30;;
18166;SDS011;9208;42.688;23.404;2023-04-24T06:55:41;8.50;;;7.70;;
18166;SDS011;9208;42.688;23.404;2023-04-24T06:58:08;10.97;;;7.33;;
18166;SDS011;9208;42.688;23.404;2023-04-24T07:00:34;8.03;;;7.20;;
18166;SDS011;9208;42.688;23.404;2023-04-24T07:03:03;9.10;;;7.17;;
18166;SDS011;9208;42.688;23.404;2023-04-24T07:05:30;8.67;;;7.70;;
18166;SDS011;9208;42.688;23.404;2023-04-24T07:07:56;11.37;;;7.20;;
18166;SDS011;9208;42.688;23.404;2023-04-24T07:10:23;12.10;;;7.50;;
18166;SDS011;9208;42.688;23.404;2023-04-24T07:12:49;10.13;;;7.20;;
18166;SDS011;9208;42.688;23.404;2023-04-24T07:15:15;7.83;;;7.00;;
18166;SDS011;9208;42.688;23.404;2023-04-24T07:17:41;8.20;;;6.83;;
18166;SDS011;9208;42.688;23.404;2023-04-24T07:20:10;22.23;;;9.57;;
18166;SDS011;9208;42.688;23.404;2023-04-24T07:22:39;10.83;;;7.90;;
18166;SDS011;9208;42.688;23.404;2023-04-24T07:25:05;9.77;;;7.90;;
18166;SDS011;9208;42.688;23.404;2023-04-24T07:27:31;8.43;;;6.57;;
18166;SDS011;9208;42.688;23.404;2023-04-24T07:29:57;8.90;;;6.60;;
18166;SDS011;9208;42.688;23.404;2023-04-24T07:32:23;9.43;;;7.10;;
18166;SDS011;9208;42.688;23.404;2023-04-24T07:34:49;7.00;;;6.30;;
18166;SDS011;9208;42.688;23.404;2023-04-24T07:37:14;10.37;;;6.60;;
18166;SDS011;9208;42.688;23.404;2023-04-24T07:39:40;15.40;;;6.57;;
18166;SDS011;9208;42.688;23.404;2023-04-24T07:42:06;8.67;;;6.33;;
18166;SDS011;9208;42.688;23.404;2023-04-24T07:44:31;6.63;;;6.00;;
18166;SDS011;9208;42.688;23.404;2023-04-24T07:46:57;18.47;;;7.77;;
18166;SDS011;9208;42.688;23.404;2023-04-24T07:49:22;8.80;;;7.57;;
18166;SDS011;9208;42.688;23.404;2023-04-24T07:51:49;7.80;;;6.30;;
18166;SDS011;9208;42.688;23.404;2023-04-24T07:54:14;9.33;;;6.53;;
18166;SDS011;9208;42.688;23.404;2023-04-24T07:56:40;8.63;;;5.67;;
18166;SDS011;9208;42.688;23.404;2023-04-24T07:59:07;7.43;;;6.17;;
18166;SDS011;9208;42.688;23.404;2023-04-24T08:01:34;8.47;;;6.50;;
18166;SDS011;9208;42.688;23.404;2023-04-24T08:04:00;6.03;;;5.30;;
18166;SDS011;9208;42.688;23.404;2023-04-24T08:06:25;9.10;;;6.40;;
18166;SDS011;9208;42.688;23.404;2023-04-24T08:08:58;6.87;;;5.37;;
18166;SDS011;9208;42.688;23.404;2023-04-24T08:11:25;6.27;;;4.97;;
18166;SDS011;9208;42.688;23.404;2023-04-24T08:13:51;5.53;;;4.60;;
18166;SDS011;9208;42.688;23.404;2023-04-24T08:16:16;5.83;;;5.23;;
18166;SDS011;9208;42.688;23.404;2023-04-24T08:18:42;5.57;;;4.70;;
18166;SDS011;9208;42.688;23.404;2023-04-24T08:21:07;4.47;;;4.07;;
18166;SDS011;9208;42.688;23.404;2023-04-24T08:23:33;4.07;;;3.77;;
18166;SDS011;9208;42.688;23.404;2023-04-24T08:25:58;4.53;;;4.23;;
18166;SDS011;9208;42.688;23.404;2023-04-24T08:28:23;4.73;;;4.20;;
18166;SDS011;9208;42.688;23.404;2023-04-24T08:30:49;6.07;;;4.70;;
18166;SDS011;9208;42.688;23.404;2023-04-24T08:33:19;6.43;;;4.13;;
18166;SDS011;9208;42.688;23.404;2023-04-24T08:35:48;4.73;;;4.23;;
18166;SDS011;9208;42.688;23.404;2023-04-24T08:38:15;4.40;;;4.00;;
18166;SDS011;9208;42.688;23.404;2023-04-24T08:40:41;5.67;;;3.97;;
18166;SDS011;9208;42.688;23.404;2023-04-24T08:43:08;4.40;;;4.00;;
18166;SDS011;9208;42.688;23.404;2023-04-24T08:45:35;6.70;;;4.20;;
18166;SDS011;9208;42.688;23.404;2023-04-24T08:48:01;4.97;;;4.00;;
18166;SDS011;9208;42.688;23.404;2023-04-24T08:50:29;4.40;;;4.00;;
18166;SDS011;9208;42.688;23.404;2023-04-24T08:52:54;4.30;;;3.90;;
18166;SDS011;9208;42.688;23.404;2023-04-24T08:55:22;6.43;;;4.47;;
18166;SDS011;9208;42.688;23.404;2023-04-24T08:57:50;5.03;;;4.07;;
18166;SDS011;9208;42.688;23.404;2023-04-24T09:00:18;4.83;;;4.00;;
18166;SDS011;9208;42.688;23.404;2023-04-24T09:02:47;5.00;;;3.90;;
18166;SDS011;9208;42.688;23.404;2023-04-24T09:05:16;4.40;;;4.00;;
18166;SDS011;9208;42.688;23.404;2023-04-24T09:07:44;4.33;;;3.93;;
18166;SDS011;9208;42.688;23.404;2023-04-24T09:10:11;6.47;;;4.00;;
18166;SDS011;9208;42.688;23.404;2023-04-24T09:12:37;5.20;;;4.33;;
18166;SDS011;9208;42.688;23.404;2023-04-24T09:15:03;6.80;;;4.30;;
18166;SDS011;9208;42.688;23.404;2023-04-24T09:17:33;7.93;;;4.43;;
18166;SDS011;9208;42.688;23.404;2023-04-24T09:19:59;4.40;;;4.00;;
18166;SDS011;9208;42.688;23.404;2023-04-24T09:22:25;5.17;;;4.67;;
18166;SDS011;9208;42.688;23.404;2023-04-24T09:25:04;7.90;;;4.07;;
18166;SDS011;9208;42.688;23.404;2023-04-24T09:27:32;6.00;;;4.80;;
18166;SDS011;9208;42.688;23.404;2023-04-24T09:29:58;8.03;;;4.70;;
18166;SDS011;9208;42.688;23.404;2023-04-24T09:32:24;5.37;;;3.90;;
18166;SDS011;9208;42.688;23.404;2023-04-24T09:35:04;11.97;;;5.00;;
18166;SDS011;9208;42.688;23.404;2023-04-24T09:37:36;6.77;;;4.40;;
18166;SDS011;9208;42.688;23.404;2023-04-24T09:42:43;18.93;;;4.93;;
18166;SDS011;9208;42.688;23.404;2023-04-24T09:45:11;4.40;;;4.00;;
18166;SDS011;9208;42.688;23.404;2023-04-24T09:47:40;6.67;;;3.70;;
18166;SDS011;9208;42.688;23.404;2023-04-24T09:50:15;5.40;;;4.20;;
18166;SDS011;9208;42.688;23.404;2023-04-24T09:52:46;5.70;;;4.10;;
18166;SDS011;9208;42.688;23.404;2023-04-24T09:55:22;7.93;;;3.97;;
18166;SDS011;9208;42.688;23.404;2023-04-24T09:57:57;4.57;;;3.70;;
18166;SDS011;9208;42.688;23.404;2023-04-24T10:00:29;4.73;;;3.70;;
18166;SDS011;9208;42.688;23.404;2023-04-24T10:05:24;4.00;;;3.70;;
18166;SDS011;9208;42.688;23.404;2023-04-24T10:07:52;4.63;;;4.13;;
18166;SDS011;9208;42.688;23.404;2023-04-24T10:10:22;4.73;;;3.60;;
18166;SDS011;9208;42.688;23.404;2023-04-24T10:12:47;4.87;;;3.77;;
18166;SDS011;9208;42.688;23.404;2023-04-24T10:15:17;6.07;;;3.60;;
18166;SDS011;9208;42.688;23.404;2023-04-24T10:17:49;4.90;;;3.60;;
18166;SDS011;9208;42.688;23.404;2023-04-24T10:20:22;4.27;;;3.50;;
18166;SDS011;9208;42.688;23.404;2023-04-24T10:22:50;3.90;;;3.30;;
18166;SDS011;9208;42.688;23.404;2023-04-24T10:25:17;4.80;;;3.73;;
18166;SDS011;9208;42.688;23.404;2023-04-24T10:27:44;22.43;;;6.70;;
18166;SDS011;9208;42.688;23.404;2023-04-24T10:30:12;4.00;;;3.60;;
18166;SDS011;9208;42.688;23.404;2023-04-24T10:32:38;3.97;;;3.53;;
18166;SDS011;9208;42.688;23.404;2023-04-24T10:35:04;4.60;;;3.87;;
18166;SDS011;9208;42.688;23.404;2023-04-24T10:37:35;4.13;;;3.73;;
18166;SDS011;9208;42.688;23.404;2023-04-24T10:40:04;5.07;;;3.67;;
18166;SDS011;9208;42.688;23.404;2023-04-24T10:42:30;4.43;;;3.80;;
18166;SDS011;9208;42.688;23.404;2023-04-24T10:44:56;4.90;;;3.47;;
18166;SDS011;9208;42.688;23.404;2023-04-24T10:47:23;4.43;;;3.50;;
18166;SDS011;9208;42.688;23.404;2023-04-24T10:49:50;3.63;;;3.33;;
18166;SDS011;9208;42.688;23.404;2023-04-24T10:52:16;4.17;;;3.77;;
18166;SDS011;9208;42.688;23.404;2023-04-24T10:54:42;3.87;;;3.47;;
18166;SDS011;9208;42.688;23.404;2023-04-24T10:57:28;6.90;;;4.13;;
18166;SDS011;9208;42.688;23.404;2023-04-24T11:02:56;5.90;;;3.50;;
18166;SDS011;9208;42.688;23.404;2023-04-24T11:05:22;5.60;;;4.13;;
18166;SDS011;9208;42.688;23.404;2023-04-24T11:08:38;4.03;;;3.63;;
18166;SDS011;9208;42.688;23.404;2023-04-24T11:11:09;4.93;;;3.67;;
18166;SDS011;9208;42.688;23.404;2023-04-24T11:22:03;5.57;;;3.80;;
18166;SDS011;9208;42.688;23.404;2023-04-24T11:29:40;4.83;;;3.70;;
18166;SDS011;9208;42.688;23.404;2023-04-24T11:37:48;8.53;;;4.23;;
18166;SDS011;9208;42.688;23.404;2023-04-24T11:40:15;8.93;;;3.80;;
18166;SDS011;9208;42.688;23.404;2023-04-24T11:42:43;7.93;;;4.53;;
18166;SDS011;9208;42.688;23.404;2023-04-24T11:45:21;5.87;;;4.60;;
18166;SDS011;9208;42.688;23.404;2023-04-24T11:47:48;4.70;;;4.27;;
18166;SDS011;9208;42.688;23.404;2023-04-24T11:50:14;4.83;;;3.97;;
18166;SDS011;9208;42.688;23.404;2023-04-24T11:52:42;5.57;;;4.53;;
18166;SDS011;9208;42.688;23.404;2023-04-24T11:57:47;9.53;;;6.47;;
18166;SDS011;9208;42.688;23.404;2023-04-24T12:00:25;10.33;;;6.60;;
18166;SDS011;9208;42.688;23.404;2023-04-24T12:03:02;4.90;;;4.40;;
18166;SDS011;9208;42.688;23.404;2023-04-24T12:05:30;8.67;;;4.53;;
18166;SDS011;9208;42.688;23.404;2023-04-24T12:07:56;5.37;;;4.83;;
18166;SDS011;9208;42.688;23.404;2023-04-24T12:10:26;4.13;;;3.83;;
18166;SDS011;9208;42.688;23.404;2023-04-24T12:12:53;5.20;;;4.03;;
18166;SDS011;9208;42.688;23.404;2023-04-24T12:15:21;5.03;;;4.13;;
18166;SDS011;9208;42.688;23.404;2023-04-24T12:17:47;4.63;;;4.23;;
18166;SDS011;9208;42.688;23.404;2023-04-24T12:20:13;4.40;;;3.93;;
18166;SDS011;9208;42.688;23.404;2023-04-24T12:22:55;3.80;;;3.50;;
18166;SDS011;9208;42.688;23.404;2023-04-24T12:25:23;5.03;;;3.20;;
18166;SDS011;9208;42.688;23.404;2023-04-24T12:30:34;3.73;;;3.43;;
18166;SDS011;9208;42.688;23.404;2023-04-24T12:33:03;8.37;;;3.70;;
18166;SDS011;9208;42.688;23.404;2023-04-24T12:35:29;3.13;;;2.93;;
18166;SDS011;9208;42.688;23.404;2023-04-24T12:38:07;3.70;;;3.40;;
18166;SDS011;9208;42.688;23.404;2023-04-24T12:40:33;7.23;;;3.27;;
18166;SDS011;9208;42.688;23.404;2023-04-24T12:42:59;5.07;;;3.40;;
18166;SDS011;9208;42.688;23.404;2023-04-24T12:45:24;3.63;;;2.93;;
18166;SDS011;9208;42.688;23.404;2023-04-24T12:47:52;4.03;;;3.43;;
18166;SDS011;9208;42.688;23.404;2023-04-24T12:50:17;3.73;;;3.20;;
18166;SDS011;9208;42.688;23.404;2023-04-24T12:52:43;3.50;;;3.20;;
18166;SDS011;9208;42.688;23.404;2023-04-24T12:55:10;3.47;;;2.80;;
18166;SDS011;9208;42.688;23.404;2023-04-24T12:57:37;3.43;;;3.20;;
18166;SDS011;9208;42.688;23.404;2023-04-24T13:00:04;4.30;;;2.80;;
18166;SDS011;9208;42.688;23.404;2023-04-24T13:02:31;4.07;;;3.13;;
18166;SDS011;9208;42.688;23.404;2023-04-24T13:05:00;3.53;;;3.23;;
18166;SDS011;9208;42.688;23.404;2023-04-24T13:07:26;3.20;;;2.90;;
18166;SDS011;9208;42.688;23.404;2023-04-24T13:09:52;3.30;;;3.03;;
18166;SDS011;9208;42.688;23.404;2023-04-24T13:12:19;5.47;;;3.73;;
18166;SDS011;9208;42.688;23.404;2023-04-24T13:14:45;4.57;;;3.27;;
18166;SDS011;9208;42.688;23.404;2023-04-24T13:17:11;5.07;;;3.67;;
18166;SDS011;9208;42.688;23.404;2023-04-24T13:19:41;4.53;;;3.97;;
18166;SDS011;9208;42.688;23.404;2023-04-24T13:22:10;6.13;;;3.70;;
18166;SDS011;9208;42.688;23.404;2023-04-24T13:24:36;4.47;;;3.40;;
18166;SDS011;9208;42.688;23.404;2023-04-24T13:27:02;3.87;;;3.30;;
18166;SDS011;9208;42.688;23.404;2023-04-24T13:29:28;3.93;;;3.20;;
18166;SDS011;9208;42.688;23.404;2023-04-24T13:31:54;4.90;;;4.00;;
18166;SDS011;9208;42.688;23.404;2023-04-24T13:34:20;3.77;;;3.10;;
18166;SDS011;9208;42.688;23.404;2023-04-24T13:36:46;4.33;;;3.23;;
18166;SDS011;9208;42.688;23.404;2023-04-24T13:39:12;3.53;;;2.87;;
18166;SDS011;9208;42.688;23.404;2023-04-24T13:41:38;4.23;;;2.93;;
18166;SDS011;9208;42.688;23.404;2023-04-24T13:44:03;3.33;;;3.00;;
18166;SDS011;9208;42.688;23.404;2023-04-24T13:46:29;3.53;;;3.10;;
18166;SDS011;9208;42.688;23.404;2023-04-24T13:48:55;3.07;;;2.87;;
18166;SDS011;9208;42.688;23.404;2023-04-24T13:51:23;4.63;;;3.03;;
18166;SDS011;9208;42.688;23.404;2023-04-24T13:53:49;3.00;;;2.77;;
18166;SDS011;9208;42.688;23.404;2023-04-24T13:56:14;3.03;;;2.80;;
18166;SDS011;9208;42.688;23.404;2023-04-24T13:58:40;5.47;;;2.90;;
18166;SDS011;9208;42.688;23.404;2023-04-24T14:01:05;2.73;;;2.53;;
18166;SDS011;9208;42.688;23.404;2023-04-24T14:03:32;3.63;;;2.90;;
18166;SDS011;9208;42.688;23.404;2023-04-24T14:05:58;5.77;;;3.10;;
18166;SDS011;9208;42.688;23.404;2023-04-24T14:08:23;5.77;;;3.17;;
18166;SDS011;9208;42.688;23.404;2023-04-24T14:10:50;3.67;;;3.20;;
18166;SDS011;9208;42.688;23.404;2023-04-24T14:13:16;6.30;;;3.13;;
18166;SDS011;9208;42.688;23.404;2023-04-24T14:15:42;3.83;;;2.80;;
18166;SDS011;9208;42.688;23.404;2023-04-24T14:18:07;3.17;;;2.90;;
18166;SDS011;9208;42.688;23.404;2023-04-24T14:20:33;3.43;;;3.13;;
18166;SDS011;9208;42.688;23.404;2023-04-24T14:22:58;5.20;;;3.30;;
18166;SDS011;9208;42.688;23.404;2023-04-24T14:25:24;3.50;;;3.20;;
18166;SDS011;9208;42.688;23.404;2023-04-24T14:27:50;3.63;;;2.90;;
18166;SDS011;9208;42.688;23.404;2023-04-24T14:30:15;3.50;;;3.20;;
18166;SDS011;9208;42.688;23.404;2023-04-24T14:32:41;4.23;;;3.50;;
18166;SDS011;9208;42.688;23.404;2023-04-24T14:35:07;3.50;;;3.20;;
18166;SDS011;9208;42.688;23.404;2023-04-24T14:37:32;4.33;;;3.27;;
18166;SDS011;9208;42.688;23.404;2023-04-24T14:39:58;4.77;;;3.40;;
18166;SDS011;9208;42.688;23.404;2023-04-24T14:42:24;3.93;;;3.10;;
18166;SDS011;9208;42.688;23.404;2023-04-24T14:44:49;4.37;;;2.87;;
18166;SDS011;9208;42.688;23.404;2023-04-24T14:47:15;3.00;;;2.70;;
18166;SDS011;9208;42.688;23.404;2023-04-24T14:49:42;4.77;;;3.47;;
18166;SDS011;9208;42.688;23.404;2023-04-24T14:52:08;3.57;;;3.20;;
18166;SDS011;9208;42.688;23.404;2023-04-24T14:54:34;4.67;;;3.03;;
18166;SDS011;9208;42.688;23.404;2023-04-24T14:57:00;2.90;;;2.63;;
18166;SDS011;9208;42.688;23.404;2023-04-24T14:59:27;2.93;;;2.73;;
18166;SDS011;9208;42.688;23.404;2023-04-24T15:01:52;4.57;;;2.93;;
18166;SDS011;9208;42.688;23.404;2023-04-24T15:04:22;2.97;;;2.70;;
18166;SDS011;9208;42.688;23.404;2023-04-24T15:06:50;3.70;;;3.10;;
18166;SDS011;9208;42.688;23.404;2023-04-24T15:09:16;4.37;;;2.80;;
18166;SDS011;9208;42.688;23.404;2023-04-24T15:11:41;5.33;;;3.60;;
18166;SDS011;9208;42.688;23.404;2023-04-24T15:14:06;4.83;;;3.60;;
18166;SDS011;9208;42.688;23.404;2023-04-24T15:16:32;5.73;;;3.10;;